sensor_id;sensor_type;location;lat;lon;timestamp;temperature;humidity
13336;DHT22;6737;51.480;11.962;2022-09-03T00:01:49;17.40;95.80
13336;DHT22;6737;51.480;11.962;2022-09-03T00:04:47;17.30;95.90
13336;DHT22;6737;51.480;11.962;2022-09-03T00:07:19;17.30;96.20
13336;DHT22;6737;51.480;11.962;2022-09-03T00:09:54;17.30;96.50
13336;DHT22;6737;51.480;11.962;2022-09-03T00:12:25;17.30;96.40
13336;DHT22;6737;51.480;11.962;2022-09-03T00:15:07;17.20;96.40
13336;DHT22;6737;51.480;11.962;2022-09-03T00:17:41;17.20;96.70
13336;DHT22;6737;51.480;11.962;2022-09-03T00:20:19;17.20;96.80
13336;DHT22;6737;51.480;11.962;2022-09-03T00:22:53;17.10;96.60
13336;DHT22;6737;51.480;11.962;2022-09-03T00:25:57;17.10;96.70
13336;DHT22;6737;51.480;11.962;2022-09-03T00:28:23;17.10;96.70
13336;DHT22;6737;51.480;11.962;2022-09-03T00:31:03;17.10;97.30
13336;DHT22;6737;51.480;11.962;2022-09-03T00:33:32;17.00;96.90
13336;DHT22;6737;51.480;11.962;2022-09-03T00:36:09;16.90;97.00
13336;DHT22;6737;51.480;11.962;2022-09-03T00:38:38;16.90;97.10
13336;DHT22;6737;51.480;11.962;2022-09-03T00:41:20;16.90;97.10
13336;DHT22;6737;51.480;11.962;2022-09-03T00:46:54;16.90;97.30
13336;DHT22;6737;51.480;11.962;2022-09-03T00:49:47;16.90;97.30
13336;DHT22;6737;51.480;11.962;2022-09-03T00:52:41;16.90;97.40
13336;DHT22;6737;51.480;11.962;2022-09-03T01:00:40;16.90;97.30
13336;DHT22;6737;51.480;11.962;2022-09-03T01:06:07;16.90;97.40
13336;DHT22;6737;51.480;11.962;2022-09-03T01:12:17;16.80;97.20
13336;DHT22;6737;51.480;11.962;2022-09-03T01:15:02;16.80;97.30
13336;DHT22;6737;51.480;11.962;2022-09-03T01:23:17;16.70;97.80
13336;DHT22;6737;51.480;11.962;2022-09-03T01:28:58;16.60;97.60
13336;DHT22;6737;51.480;11.962;2022-09-03T01:32:06;16.60;97.70
13336;DHT22;6737;51.480;11.962;2022-09-03T01:46:09;16.50;97.90
13336;DHT22;6737;51.480;11.962;2022-09-03T01:51:28;16.50;98.00
13336;DHT22;6737;51.480;11.962;2022-09-03T01:57:06;16.50;97.80
13336;DHT22;6737;51.480;11.962;2022-09-03T02:02:21;16.50;98.30
13336;DHT22;6737;51.480;11.962;2022-09-03T02:05:11;16.50;98.40
13336;DHT22;6737;51.480;11.962;2022-09-03T02:07:55;16.40;98.20
13336;DHT22;6737;51.480;11.962;2022-09-03T02:10:29;16.40;98.50
13336;DHT22;6737;51.480;11.962;2022-09-03T02:13:04;16.50;98.50
13336;DHT22;6737;51.480;11.962;2022-09-03T02:15:31;16.40;98.40
13336;DHT22;6737;51.480;11.962;2022-09-03T02:18:02;16.40;98.10
13336;DHT22;6737;51.480;11.962;2022-09-03T02:20:29;16.40;98.50
13336;DHT22;6737;51.480;11.962;2022-09-03T02:22:56;16.40;98.50
13336;DHT22;6737;51.480;11.962;2022-09-03T02:25:26;16.40;98.80
13336;DHT22;6737;51.480;11.962;2022-09-03T02:27:54;16.40;98.40
13336;DHT22;6737;51.480;11.962;2022-09-03T02:30:20;16.40;98.50
13336;DHT22;6737;51.480;11.962;2022-09-03T02:32:46;16.40;98.60
13336;DHT22;6737;51.480;11.962;2022-09-03T02:35:12;16.30;98.80
13336;DHT22;6737;51.480;11.962;2022-09-03T02:37:37;16.40;98.70
13336;DHT22;6737;51.480;11.962;2022-09-03T02:40:03;16.30;98.70
13336;DHT22;6737;51.480;11.962;2022-09-03T02:42:33;16.30;99.00
13336;DHT22;6737;51.480;11.962;2022-09-03T02:45:08;16.30;98.60
13336;DHT22;6737;51.480;11.962;2022-09-03T02:47:37;16.30;98.60
13336;DHT22;6737;51.480;11.962;2022-09-03T02:50:05;16.30;98.50
13336;DHT22;6737;51.480;11.962;2022-09-03T02:52:31;16.30;98.90
13336;DHT22;6737;51.480;11.962;2022-09-03T02:54:57;16.20;98.90
13336;DHT22;6737;51.480;11.962;2022-09-03T02:57:23;16.20;99.00
13336;DHT22;6737;51.480;11.962;2022-09-03T02:59:49;16.20;99.20
13336;DHT22;6737;51.480;11.962;2022-09-03T03:02:15;16.10;99.20
13336;DHT22;6737;51.480;11.962;2022-09-03T03:04:41;16.10;99.20
13336;DHT22;6737;51.480;11.962;2022-09-03T03:07:07;16.00;99.30
13336;DHT22;6737;51.480;11.962;2022-09-03T03:09:32;16.00;99.30
13336;DHT22;6737;51.480;11.962;2022-09-03T03:11:59;16.00;99.20
13336;DHT22;6737;51.480;11.962;2022-09-03T03:14:25;15.90;99.30
13336;DHT22;6737;51.480;11.962;2022-09-03T03:16:51;15.90;99.40
13336;DHT22;6737;51.480;11.962;2022-09-03T03:19:17;15.90;99.50
13336;DHT22;6737;51.480;11.962;2022-09-03T03:21:43;15.90;99.50
13336;DHT22;6737;51.480;11.962;2022-09-03T03:24:09;15.90;99.60
13336;DHT22;6737;51.480;11.962;2022-09-03T03:26:34;15.90;99.60
13336;DHT22;6737;51.480;11.962;2022-09-03T03:29:02;15.90;99.70
13336;DHT22;6737;51.480;11.962;2022-09-03T03:31:31;15.80;99.80
13336;DHT22;6737;51.480;11.962;2022-09-03T03:33:59;15.80;99.90
13336;DHT22;6737;51.480;11.962;2022-09-03T03:36:28;15.80;99.90
13336;DHT22;6737;51.480;11.962;2022-09-03T03:38:56;15.80;99.90
13336;DHT22;6737;51.480;11.962;2022-09-03T03:41:25;15.70;99.90
13336;DHT22;6737;51.480;11.962;2022-09-03T03:43:52;15.70;99.90
13336;DHT22;6737;51.480;11.962;2022-09-03T03:46:19;15.70;99.90
13336;DHT22;6737;51.480;11.962;2022-09-03T03:48:52;15.70;99.90
13336;DHT22;6737;51.480;11.962;2022-09-03T03:51:18;15.70;99.90
13336;DHT22;6737;51.480;11.962;2022-09-03T03:53:45;15.60;99.90
13336;DHT22;6737;51.480;11.962;2022-09-03T03:56:13;15.60;99.90
13336;DHT22;6737;51.480;11.962;2022-09-03T03:58:40;15.60;99.90
13336;DHT22;6737;51.480;11.962;2022-09-03T04:01:14;15.60;99.90
13336;DHT22;6737;51.480;11.962;2022-09-03T04:03:40;15.60;99.90
13336;DHT22;6737;51.480;11.962;2022-09-03T04:06:08;15.50;99.90
13336;DHT22;6737;51.480;11.962;2022-09-03T04:08:37;15.50;99.90
13336;DHT22;6737;51.480;11.962;2022-09-03T04:11:05;15.50;99.90
13336;DHT22;6737;51.480;11.962;2022-09-03T04:13:33;15.50;99.90
13336;DHT22;6737;51.480;11.962;2022-09-03T04:16:09;15.50;99.90
13336;DHT22;6737;51.480;11.962;2022-09-03T04:18:36;15.50;99.90
13336;DHT22;6737;51.480;11.962;2022-09-03T04:21:07;15.50;99.90
13336;DHT22;6737;51.480;11.962;2022-09-03T04:23:36;15.40;99.90
13336;DHT22;6737;51.480;11.962;2022-09-03T04:26:03;15.50;99.90
13336;DHT22;6737;51.480;11.962;2022-09-03T04:28:29;15.40;99.90
13336;DHT22;6737;51.480;11.962;2022-09-03T04:31:01;15.40;99.90
13336;DHT22;6737;51.480;11.962;2022-09-03T04:33:28;15.40;99.90
13336;DHT22;6737;51.480;11.962;2022-09-03T04:38:33;15.40;99.90
13336;DHT22;6737;51.480;11.962;2022-09-03T04:41:00;15.40;99.90
13336;DHT22;6737;51.480;11.962;2022-09-03T04:43:27;15.40;99.90
13336;DHT22;6737;51.480;11.962;2022-09-03T04:46:01;15.40;99.90
13336;DHT22;6737;51.480;11.962;2022-09-03T04:48:28;15.40;99.90
13336;DHT22;6737;51.480;11.962;2022-09-03T04:51:00;15.30;99.90
13336;DHT22;6737;51.480;11.962;2022-09-03T04:53:33;15.20;99.90
13336;DHT22;6737;51.480;11.962;2022-09-03T04:56:00;15.20;99.90
13336;DHT22;6737;51.480;11.962;2022-09-03T04:58:26;15.10;99.90
13336;DHT22;6737;51.480;11.962;2022-09-03T05:00:51;15.10;99.90
13336;DHT22;6737;51.480;11.962;2022-09-03T05:03:17;15.10;99.90
13336;DHT22;6737;51.480;11.962;2022-09-03T05:05:54;15.20;99.90
13336;DHT22;6737;51.480;11.962;2022-09-03T05:08:20;15.10;99.90
13336;DHT22;6737;51.480;11.962;2022-09-03T05:10:47;15.10;99.90
13336;DHT22;6737;51.480;11.962;2022-09-03T05:13:13;15.10;99.90
13336;DHT22;6737;51.480;11.962;2022-09-03T05:15:39;15.20;99.90
13336;DHT22;6737;51.480;11.962;2022-09-03T05:18:10;15.20;99.90
13336;DHT22;6737;51.480;11.962;2022-09-03T05:20:37;15.20;99.90
13336;DHT22;6737;51.480;11.962;2022-09-03T05:23:03;15.20;99.90
13336;DHT22;6737;51.480;11.962;2022-09-03T05:25:29;15.10;99.90
13336;DHT22;6737;51.480;11.962;2022-09-03T05:27:58;15.10;99.90
13336;DHT22;6737;51.480;11.962;2022-09-03T05:30:24;15.10;99.90
13336;DHT22;6737;51.480;11.962;2022-09-03T05:32:51;15.10;99.90
13336;DHT22;6737;51.480;11.962;2022-09-03T05:35:17;15.20;99.90
13336;DHT22;6737;51.480;11.962;2022-09-03T05:37:44;15.20;99.90
13336;DHT22;6737;51.480;11.962;2022-09-03T05:40:10;15.10;99.90
13336;DHT22;6737;51.480;11.962;2022-09-03T05:42:37;15.20;99.90
13336;DHT22;6737;51.480;11.962;2022-09-03T05:45:07;15.20;99.90
13336;DHT22;6737;51.480;11.962;2022-09-03T05:47:38;15.20;99.90
13336;DHT22;6737;51.480;11.962;2022-09-03T05:50:08;15.30;99.90
13336;DHT22;6737;51.480;11.962;2022-09-03T05:52:36;15.30;99.90
13336;DHT22;6737;51.480;11.962;2022-09-03T05:55:02;15.30;99.90
13336;DHT22;6737;51.480;11.962;2022-09-03T05:57:29;15.30;99.90
13336;DHT22;6737;51.480;11.962;2022-09-03T05:59:55;15.30;99.90
13336;DHT22;6737;51.480;11.962;2022-09-03T06:02:21;15.20;99.90
13336;DHT22;6737;51.480;11.962;2022-09-03T06:04:48;15.30;99.90
13336;DHT22;6737;51.480;11.962;2022-09-03T06:07:13;15.20;99.90
13336;DHT22;6737;51.480;11.962;2022-09-03T06:09:39;15.20;99.90
13336;DHT22;6737;51.480;11.962;2022-09-03T06:12:06;15.30;99.90
13336;DHT22;6737;51.480;11.962;2022-09-03T06:14:32;15.30;99.90
13336;DHT22;6737;51.480;11.962;2022-09-03T06:16:58;15.30;99.90
13336;DHT22;6737;51.480;11.962;2022-09-03T06:19:24;15.30;99.90
13336;DHT22;6737;51.480;11.962;2022-09-03T06:21:49;15.30;99.90
13336;DHT22;6737;51.480;11.962;2022-09-03T06:24:17;15.40;99.90
13336;DHT22;6737;51.480;11.962;2022-09-03T06:26:45;15.40;99.90
13336;DHT22;6737;51.480;11.962;2022-09-03T06:29:11;15.40;99.90
13336;DHT22;6737;51.480;11.962;2022-09-03T06:31:37;15.50;99.90
13336;DHT22;6737;51.480;11.962;2022-09-03T06:34:04;15.50;99.90
13336;DHT22;6737;51.480;11.962;2022-09-03T06:36:31;15.50;99.90
13336;DHT22;6737;51.480;11.962;2022-09-03T06:38:57;15.60;99.90
13336;DHT22;6737;51.480;11.962;2022-09-03T06:41:29;15.60;99.90
13336;DHT22;6737;51.480;11.962;2022-09-03T06:43:59;15.60;99.90
13336;DHT22;6737;51.480;11.962;2022-09-03T06:46:34;15.70;99.90
13336;DHT22;6737;51.480;11.962;2022-09-03T06:49:03;15.70;99.90
13336;DHT22;6737;51.480;11.962;2022-09-03T06:51:31;15.80;99.90
13336;DHT22;6737;51.480;11.962;2022-09-03T06:54:08;15.90;99.90
13336;DHT22;6737;51.480;11.962;2022-09-03T06:56:36;15.90;99.90
13336;DHT22;6737;51.480;11.962;2022-09-03T06:59:07;16.00;99.90
13336;DHT22;6737;51.480;11.962;2022-09-03T07:01:34;16.00;99.90
13336;DHT22;6737;51.480;11.962;2022-09-03T07:04:02;16.20;99.90
13336;DHT22;6737;51.480;11.962;2022-09-03T07:06:31;16.20;99.90
13336;DHT22;6737;51.480;11.962;2022-09-03T07:08:58;16.30;99.90
13336;DHT22;6737;51.480;11.962;2022-09-03T07:11:26;16.40;99.90
13336;DHT22;6737;51.480;11.962;2022-09-03T07:13:54;16.40;99.90
13336;DHT22;6737;51.480;11.962;2022-09-03T07:16:26;16.50;99.90
13336;DHT22;6737;51.480;11.962;2022-09-03T07:18:54;16.50;99.90
13336;DHT22;6737;51.480;11.962;2022-09-03T07:21:26;16.60;99.90
13336;DHT22;6737;51.480;11.962;2022-09-03T07:23:54;16.70;99.90
13336;DHT22;6737;51.480;11.962;2022-09-03T07:26:25;16.70;99.90
13336;DHT22;6737;51.480;11.962;2022-09-03T07:28:51;16.80;99.90
13336;DHT22;6737;51.480;11.962;2022-09-03T07:31:21;16.90;99.90
13336;DHT22;6737;51.480;11.962;2022-09-03T07:34:01;17.00;99.90
13336;DHT22;6737;51.480;11.962;2022-09-03T07:36:35;17.10;99.90
13336;DHT22;6737;51.480;11.962;2022-09-03T07:39:03;17.20;99.90
13336;DHT22;6737;51.480;11.962;2022-09-03T07:41:29;17.20;99.90
13336;DHT22;6737;51.480;11.962;2022-09-03T07:43:58;17.30;99.90
13336;DHT22;6737;51.480;11.962;2022-09-03T07:46:33;17.40;99.90
13336;DHT22;6737;51.480;11.962;2022-09-03T07:49:00;17.50;99.90
13336;DHT22;6737;51.480;11.962;2022-09-03T07:51:32;17.50;99.90
13336;DHT22;6737;51.480;11.962;2022-09-03T07:54:00;17.60;99.90
13336;DHT22;6737;51.480;11.962;2022-09-03T07:56:27;17.70;99.90
13336;DHT22;6737;51.480;11.962;2022-09-03T07:58:56;17.80;99.90
13336;DHT22;6737;51.480;11.962;2022-09-03T08:01:25;17.90;99.20
13336;DHT22;6737;51.480;11.962;2022-09-03T08:03:54;17.90;99.30
13336;DHT22;6737;51.480;11.962;2022-09-03T08:06:22;18.00;98.90
13336;DHT22;6737;51.480;11.962;2022-09-03T08:09:05;18.00;99.00
13336;DHT22;6737;51.480;11.962;2022-09-03T08:11:34;18.10;99.10
13336;DHT22;6737;51.480;11.962;2022-09-03T08:14:04;18.20;99.10
13336;DHT22;6737;51.480;11.962;2022-09-03T08:16:33;18.20;99.20
13336;DHT22;6737;51.480;11.962;2022-09-03T08:18:59;18.20;99.70
13336;DHT22;6737;51.480;11.962;2022-09-03T08:21:26;18.30;98.40
13336;DHT22;6737;51.480;11.962;2022-09-03T08:23:53;18.30;98.60
13336;DHT22;6737;51.480;11.962;2022-09-03T08:26:21;18.40;98.40
13336;DHT22;6737;51.480;11.962;2022-09-03T08:28:47;18.50;98.00
13336;DHT22;6737;51.480;11.962;2022-09-03T08:31:17;18.60;97.40
13336;DHT22;6737;51.480;11.962;2022-09-03T08:33:46;18.60;98.30
13336;DHT22;6737;51.480;11.962;2022-09-03T08:36:16;18.60;97.30
13336;DHT22;6737;51.480;11.962;2022-09-03T08:38:43;18.70;97.60
13336;DHT22;6737;51.480;11.962;2022-09-03T08:41:47;18.80;97.50
13336;DHT22;6737;51.480;11.962;2022-09-03T08:47:04;18.90;97.20
13336;DHT22;6737;51.480;11.962;2022-09-03T08:52:39;19.10;96.60
13336;DHT22;6737;51.480;11.962;2022-09-03T09:06:06;19.30;96.50
13336;DHT22;6737;51.480;11.962;2022-09-03T09:14:02;19.50;96.10
13336;DHT22;6737;51.480;11.962;2022-09-03T09:16:32;19.60;96.00
13336;DHT22;6737;51.480;11.962;2022-09-03T09:19:34;19.60;95.00
13336;DHT22;6737;51.480;11.962;2022-09-03T09:22:09;19.70;95.30
13336;DHT22;6737;51.480;11.962;2022-09-03T09:24:40;19.80;94.40
13336;DHT22;6737;51.480;11.962;2022-09-03T09:27:07;19.90;94.40
13336;DHT22;6737;51.480;11.962;2022-09-03T09:29:37;20.00;94.40
13336;DHT22;6737;51.480;11.962;2022-09-03T09:32:04;20.00;93.80
13336;DHT22;6737;51.480;11.962;2022-09-03T09:34:37;20.00;93.90
13336;DHT22;6737;51.480;11.962;2022-09-03T09:37:12;20.10;93.20
13336;DHT22;6737;51.480;11.962;2022-09-03T09:39:39;20.30;92.90
13336;DHT22;6737;51.480;11.962;2022-09-03T09:42:07;20.40;92.70
13336;DHT22;6737;51.480;11.962;2022-09-03T09:44:40;20.40;93.20
13336;DHT22;6737;51.480;11.962;2022-09-03T09:47:15;20.40;92.50
13336;DHT22;6737;51.480;11.962;2022-09-03T09:52:16;20.60;92.00
13336;DHT22;6737;51.480;11.962;2022-09-03T09:54:43;20.60;92.30
13336;DHT22;6737;51.480;11.962;2022-09-03T09:57:23;20.80;92.10
13336;DHT22;6737;51.480;11.962;2022-09-03T10:00:08;20.80;92.00
13336;DHT22;6737;51.480;11.962;2022-09-03T10:02:36;20.80;92.00
13336;DHT22;6737;51.480;11.962;2022-09-03T10:05:20;20.80;91.90
13336;DHT22;6737;51.480;11.962;2022-09-03T10:08:02;21.00;92.30
13336;DHT22;6737;51.480;11.962;2022-09-03T10:10:31;20.90;91.70
13336;DHT22;6737;51.480;11.962;2022-09-03T10:13:09;21.10;91.30
13336;DHT22;6737;51.480;11.962;2022-09-03T10:15:41;21.00;91.60
13336;DHT22;6737;51.480;11.962;2022-09-03T10:18:18;21.10;90.90
13336;DHT22;6737;51.480;11.962;2022-09-03T10:21:19;21.20;90.80
13336;DHT22;6737;51.480;11.962;2022-09-03T10:24:03;21.20;90.00
13336;DHT22;6737;51.480;11.962;2022-09-03T10:26:40;21.20;90.10
13336;DHT22;6737;51.480;11.962;2022-09-03T10:29:12;21.30;90.40
13336;DHT22;6737;51.480;11.962;2022-09-03T10:32:13;21.40;90.30
13336;DHT22;6737;51.480;11.962;2022-09-03T10:37:31;21.50;87.60
13336;DHT22;6737;51.480;11.962;2022-09-03T10:40:10;21.60;90.10
13336;DHT22;6737;51.480;11.962;2022-09-03T10:50:56;21.60;88.20
13336;DHT22;6737;51.480;11.962;2022-09-03T10:53:34;21.60;87.10
13336;DHT22;6737;51.480;11.962;2022-09-03T10:56:31;21.60;89.90
13336;DHT22;6737;51.480;11.962;2022-09-03T10:59:25;21.60;88.10
13336;DHT22;6737;51.480;11.962;2022-09-03T11:04:55;21.70;88.10
13336;DHT22;6737;51.480;11.962;2022-09-03T11:07:40;21.60;88.10
13336;DHT22;6737;51.480;11.962;2022-09-03T11:10:30;21.60;90.20
13336;DHT22;6737;51.480;11.962;2022-09-03T11:13:08;21.60;90.10
13336;DHT22;6737;51.480;11.962;2022-09-03T11:15:44;21.60;90.20
13336;DHT22;6737;51.480;11.962;2022-09-03T11:18:37;21.60;90.20
13336;DHT22;6737;51.480;11.962;2022-09-03T11:21:08;21.60;90.30
13336;DHT22;6737;51.480;11.962;2022-09-03T11:23:39;21.60;90.30
13336;DHT22;6737;51.480;11.962;2022-09-03T11:26:09;21.60;89.80
13336;DHT22;6737;51.480;11.962;2022-09-03T11:29:09;21.60;90.20
13336;DHT22;6737;51.480;11.962;2022-09-03T11:31:53;21.60;89.40
13336;DHT22;6737;51.480;11.962;2022-09-03T11:37:14;21.50;90.10
13336;DHT22;6737;51.480;11.962;2022-09-03T11:39:43;21.50;88.70
13336;DHT22;6737;51.480;11.962;2022-09-03T11:42:11;21.50;89.20
13336;DHT22;6737;51.480;11.962;2022-09-03T11:44:45;21.40;89.50
13336;DHT22;6737;51.480;11.962;2022-09-03T11:47:22;21.50;89.30
13336;DHT22;6737;51.480;11.962;2022-09-03T11:49:50;21.50;88.50
13336;DHT22;6737;51.480;11.962;2022-09-03T11:52:27;21.50;88.20
13336;DHT22;6737;51.480;11.962;2022-09-03T11:54:54;21.50;87.60
13336;DHT22;6737;51.480;11.962;2022-09-03T11:57:30;21.50;87.50
13336;DHT22;6737;51.480;11.962;2022-09-03T12:00:13;21.50;87.10
13336;DHT22;6737;51.480;11.962;2022-09-03T12:02:48;21.50;88.40
13336;DHT22;6737;51.480;11.962;2022-09-03T12:05:20;21.50;88.60
13336;DHT22;6737;51.480;11.962;2022-09-03T12:07:57;21.60;86.10
13336;DHT22;6737;51.480;11.962;2022-09-03T12:10:58;21.50;86.40
13336;DHT22;6737;51.480;11.962;2022-09-03T12:18:47;21.60;87.30
13336;DHT22;6737;51.480;11.962;2022-09-03T12:21:18;21.60;87.70
13336;DHT22;6737;51.480;11.962;2022-09-03T12:23:49;21.60;87.70
13336;DHT22;6737;51.480;11.962;2022-09-03T12:26:20;21.60;87.40
13336;DHT22;6737;51.480;11.962;2022-09-03T12:28:55;21.60;87.20
13336;DHT22;6737;51.480;11.962;2022-09-03T12:31:24;21.60;86.90
13336;DHT22;6737;51.480;11.962;2022-09-03T12:33:58;21.60;87.60
13336;DHT22;6737;51.480;11.962;2022-09-03T12:36:26;21.60;88.10
13336;DHT22;6737;51.480;11.962;2022-09-03T12:38:52;21.70;87.70
13336;DHT22;6737;51.480;11.962;2022-09-03T12:41:25;21.70;86.60
13336;DHT22;6737;51.480;11.962;2022-09-03T12:43:54;21.80;86.00
13336;DHT22;6737;51.480;11.962;2022-09-03T12:46:25;21.80;87.20
13336;DHT22;6737;51.480;11.962;2022-09-03T12:48:56;21.80;85.90
13336;DHT22;6737;51.480;11.962;2022-09-03T12:51:24;21.90;86.30
13336;DHT22;6737;51.480;11.962;2022-09-03T12:53:51;21.80;87.00
13336;DHT22;6737;51.480;11.962;2022-09-03T12:56:18;21.90;87.00
13336;DHT22;6737;51.480;11.962;2022-09-03T12:58:55;21.90;86.10
13336;DHT22;6737;51.480;11.962;2022-09-03T13:01:27;21.90;86.20
13336;DHT22;6737;51.480;11.962;2022-09-03T13:06:34;21.90;86.30
13336;DHT22;6737;51.480;11.962;2022-09-03T13:09:07;22.00;86.10
13336;DHT22;6737;51.480;11.962;2022-09-03T13:11:34;21.90;86.50
13336;DHT22;6737;51.480;11.962;2022-09-03T13:14:06;21.90;87.40
13336;DHT22;6737;51.480;11.962;2022-09-03T13:30:18;22.00;87.00
13336;DHT22;6737;51.480;11.962;2022-09-03T13:33:09;22.10;85.60
13336;DHT22;6737;51.480;11.962;2022-09-03T13:41:11;21.90;87.30
13336;DHT22;6737;51.480;11.962;2022-09-03T13:44:00;21.90;86.90
13336;DHT22;6737;51.480;11.962;2022-09-03T13:55:14;22.00;85.30
13336;DHT22;6737;51.480;11.962;2022-09-03T13:58:17;22.00;86.50
13336;DHT22;6737;51.480;11.962;2022-09-03T14:09:11;21.90;85.90
13336;DHT22;6737;51.480;11.962;2022-09-03T14:20:24;21.90;86.20
13336;DHT22;6737;51.480;11.962;2022-09-03T14:25:24;21.90;85.30
13336;DHT22;6737;51.480;11.962;2022-09-03T14:27:52;21.90;86.60
13336;DHT22;6737;51.480;11.962;2022-09-03T14:35:37;21.90;85.70
13336;DHT22;6737;51.480;11.962;2022-09-03T14:44:03;21.80;88.10
13336;DHT22;6737;51.480;11.962;2022-09-03T14:52:14;21.60;87.00
13336;DHT22;6737;51.480;11.962;2022-09-03T15:02:49;21.40;89.80
13336;DHT22;6737;51.480;11.962;2022-09-03T15:08:07;21.50;87.70
13336;DHT22;6737;51.480;11.962;2022-09-03T15:10:46;21.50;89.30
13336;DHT22;6737;51.480;11.962;2022-09-03T15:13:22;21.50;87.50
13336;DHT22;6737;51.480;11.962;2022-09-03T15:19:02;21.70;86.40
13336;DHT22;6737;51.480;11.962;2022-09-03T15:24:42;21.70;87.70
13336;DHT22;6737;51.480;11.962;2022-09-03T15:30:13;21.70;89.70
13336;DHT22;6737;51.480;11.962;2022-09-03T15:33:05;21.80;87.80
13336;DHT22;6737;51.480;11.962;2022-09-03T15:35:48;21.80;87.40
13336;DHT22;6737;51.480;11.962;2022-09-03T15:38:34;21.80;90.10
13336;DHT22;6737;51.480;11.962;2022-09-03T15:41:16;21.70;87.50
13336;DHT22;6737;51.480;11.962;2022-09-03T15:43:48;21.80;87.00
13336;DHT22;6737;51.480;11.962;2022-09-03T15:46:46;21.70;87.80
13336;DHT22;6737;51.480;11.962;2022-09-03T15:49:22;21.80;87.20
13336;DHT22;6737;51.480;11.962;2022-09-03T15:52:02;21.80;86.90
13336;DHT22;6737;51.480;11.962;2022-09-03T15:54:45;21.70;87.10
13336;DHT22;6737;51.480;11.962;2022-09-03T15:59:54;21.70;87.90
13336;DHT22;6737;51.480;11.962;2022-09-03T16:02:30;21.70;87.40
13336;DHT22;6737;51.480;11.962;2022-09-03T16:07:38;21.60;88.40
13336;DHT22;6737;51.480;11.962;2022-09-03T16:10:14;21.60;89.80
13336;DHT22;6737;51.480;11.962;2022-09-03T16:13:08;21.60;88.70
13336;DHT22;6737;51.480;11.962;2022-09-03T16:15:44;21.50;90.70
13336;DHT22;6737;51.480;11.962;2022-09-03T16:21:08;21.40;90.40
13336;DHT22;6737;51.480;11.962;2022-09-03T16:23:59;21.30;89.10
13336;DHT22;6737;51.480;11.962;2022-09-03T16:29:14;21.30;90.20
13336;DHT22;6737;51.480;11.962;2022-09-03T16:32:11;21.30;90.60
13336;DHT22;6737;51.480;11.962;2022-09-03T16:34:49;21.20;90.70
13336;DHT22;6737;51.480;11.962;2022-09-03T16:37:36;21.20;90.30
13336;DHT22;6737;51.480;11.962;2022-09-03T16:40:59;21.10;90.60
13336;DHT22;6737;51.480;11.962;2022-09-03T16:43:22;21.10;90.50
13336;DHT22;6737;51.480;11.962;2022-09-03T16:51:42;20.90;91.70
13336;DHT22;6737;51.480;11.962;2022-09-03T17:02:19;21.00;90.60
13336;DHT22;6737;51.480;11.962;2022-09-03T17:08:04;21.00;90.30
13336;DHT22;6737;51.480;11.962;2022-09-03T17:10:58;21.00;90.80
13336;DHT22;6737;51.480;11.962;2022-09-03T17:18:56;21.10;90.20
13336;DHT22;6737;51.480;11.962;2022-09-03T17:21:42;21.00;90.60
13336;DHT22;6737;51.480;11.962;2022-09-03T17:37:22;20.90;90.60
13336;DHT22;6737;51.480;11.962;2022-09-03T17:53:47;20.60;91.70
13336;DHT22;6737;51.480;11.962;2022-09-03T17:56:45;20.60;91.60
13336;DHT22;6737;51.480;11.962;2022-09-03T17:59:46;20.50;92.00
13336;DHT22;6737;51.480;11.962;2022-09-03T18:02:26;20.40;92.10
13336;DHT22;6737;51.480;11.962;2022-09-03T18:05:02;20.30;92.20
13336;DHT22;6737;51.480;11.962;2022-09-03T18:07:42;20.30;92.30
13336;DHT22;6737;51.480;11.962;2022-09-03T18:15:33;20.20;92.30
13336;DHT22;6737;51.480;11.962;2022-09-03T18:18:25;20.20;92.40
13336;DHT22;6737;51.480;11.962;2022-09-03T18:20:54;20.20;93.00
13336;DHT22;6737;51.480;11.962;2022-09-03T18:26:51;20.20;92.90
13336;DHT22;6737;51.480;11.962;2022-09-03T18:29:46;20.10;93.00
13336;DHT22;6737;51.480;11.962;2022-09-03T18:32:32;20.10;92.90
13336;DHT22;6737;51.480;11.962;2022-09-03T18:35:17;20.10;93.00
13336;DHT22;6737;51.480;11.962;2022-09-03T18:38:03;20.10;93.50
13336;DHT22;6737;51.480;11.962;2022-09-03T18:41:09;20.00;93.40
13336;DHT22;6737;51.480;11.962;2022-09-03T18:44:09;20.00;93.30
13336;DHT22;6737;51.480;11.962;2022-09-03T18:47:19;20.00;93.30
13336;DHT22;6737;51.480;11.962;2022-09-03T18:50:30;20.00;93.10
13336;DHT22;6737;51.480;11.962;2022-09-03T18:53:41;20.00;93.40
13336;DHT22;6737;51.480;11.962;2022-09-03T18:57:12;20.00;93.40
13336;DHT22;6737;51.480;11.962;2022-09-03T19:24:00;19.80;94.90
13336;DHT22;6737;51.480;11.962;2022-09-03T19:27:09;19.80;95.10
13336;DHT22;6737;51.480;11.962;2022-09-03T19:42:32;19.60;95.50
13336;DHT22;6737;51.480;11.962;2022-09-03T19:52:09;19.50;95.90
13336;DHT22;6737;51.480;11.962;2022-09-03T19:54:57;19.50;95.80
13336;DHT22;6737;51.480;11.962;2022-09-03T19:57:46;19.40;96.10
13336;DHT22;6737;51.480;11.962;2022-09-03T20:00:33;19.40;96.00
13336;DHT22;6737;51.480;11.962;2022-09-03T20:03:18;19.30;96.10
13336;DHT22;6737;51.480;11.962;2022-09-03T20:06:04;19.30;96.20
13336;DHT22;6737;51.480;11.962;2022-09-03T20:08:50;19.30;96.20
13336;DHT22;6737;51.480;11.962;2022-09-03T20:11:36;19.30;96.40
13336;DHT22;6737;51.480;11.962;2022-09-03T20:14:12;19.30;96.30
13336;DHT22;6737;51.480;11.962;2022-09-03T20:22:29;19.20;96.30
13336;DHT22;6737;51.480;11.962;2022-09-03T20:25:08;19.20;96.40
13336;DHT22;6737;51.480;11.962;2022-09-03T20:44:43;18.90;97.10
13336;DHT22;6737;51.480;11.962;2022-09-03T20:55:22;18.80;97.50
13336;DHT22;6737;51.480;11.962;2022-09-03T21:01:09;18.70;97.60
13336;DHT22;6737;51.480;11.962;2022-09-03T21:12:51;18.60;97.70
13336;DHT22;6737;51.480;11.962;2022-09-03T21:23:48;18.50;97.90
13336;DHT22;6737;51.480;11.962;2022-09-03T21:34:40;18.40;98.30
13336;DHT22;6737;51.480;11.962;2022-09-03T21:37:10;18.30;98.20
13336;DHT22;6737;51.480;11.962;2022-09-03T21:39:47;18.30;98.30
13336;DHT22;6737;51.480;11.962;2022-09-03T21:44:54;18.30;98.40
13336;DHT22;6737;51.480;11.962;2022-09-03T21:47:23;18.30;98.50
13336;DHT22;6737;51.480;11.962;2022-09-03T21:50:18;18.20;98.50
13336;DHT22;6737;51.480;11.962;2022-09-03T21:53:16;18.20;98.40
13336;DHT22;6737;51.480;11.962;2022-09-03T22:01:25;18.20;98.60
13336;DHT22;6737;51.480;11.962;2022-09-03T22:03:54;18.20;98.60
13336;DHT22;6737;51.480;11.962;2022-09-03T22:09:33;18.20;98.50
13336;DHT22;6737;51.480;11.962;2022-09-03T22:12:02;18.30;98.70
13336;DHT22;6737;51.480;11.962;2022-09-03T22:14:36;18.30;98.50
13336;DHT22;6737;51.480;11.962;2022-09-03T22:17:10;18.30;98.60
13336;DHT22;6737;51.480;11.962;2022-09-03T22:19:37;18.20;98.70